sensor_id;sensor_type;location;lat;lon;timestamp;temperature;humidity
62862;DHT22;48953;53.110;5.592;2022-09-09T00:00:56;14.00;99.90
62862;DHT22;48953;53.110;5.592;2022-09-09T00:03:27;14.20;99.90
62862;DHT22;48953;53.110;5.592;2022-09-09T00:06:11;14.10;99.90
62862;DHT22;48953;53.110;5.592;2022-09-09T00:11:24;14.00;99.90
62862;DHT22;48953;53.110;5.592;2022-09-09T00:13:53;14.30;99.90
62862;DHT22;48953;53.110;5.592;2022-09-09T00:16:25;14.20;99.90
62862;DHT22;48953;53.110;5.592;2022-09-09T00:19:06;14.20;99.90
62862;DHT22;48953;53.110;5.592;2022-09-09T00:23:58;14.00;99.90
62862;DHT22;48953;53.110;5.592;2022-09-09T00:26:42;14.20;99.90
62862;DHT22;48953;53.110;5.592;2022-09-09T00:34:14;14.20;99.90
62862;DHT22;48953;53.110;5.592;2022-09-09T00:36:42;14.10;99.90
62862;DHT22;48953;53.110;5.592;2022-09-09T00:42:16;14.20;99.90
62862;DHT22;48953;53.110;5.592;2022-09-09T00:44:59;14.00;99.90
62862;DHT22;48953;53.110;5.592;2022-09-09T00:56:06;14.20;99.90
62862;DHT22;48953;53.110;5.592;2022-09-09T00:58:34;14.20;99.90
62862;DHT22;48953;53.110;5.592;2022-09-09T01:01:10;14.20;99.90
62862;DHT22;48953;53.110;5.592;2022-09-09T01:03:55;14.40;99.90
62862;DHT22;48953;53.110;5.592;2022-09-09T01:06:32;14.30;99.90
62862;DHT22;48953;53.110;5.592;2022-09-09T01:09:38;14.70;99.90
62862;DHT22;48953;53.110;5.592;2022-09-09T01:22:44;14.20;99.90
62862;DHT22;48953;53.110;5.592;2022-09-09T01:28:22;14.10;99.90
62862;DHT22;48953;53.110;5.592;2022-09-09T01:30:50;14.40;99.90
62862;DHT22;48953;53.110;5.592;2022-09-09T01:33:17;14.00;99.90
62862;DHT22;48953;53.110;5.592;2022-09-09T01:38:26;14.30;99.90
62862;DHT22;48953;53.110;5.592;2022-09-09T01:40:53;14.10;99.90
62862;DHT22;48953;53.110;5.592;2022-09-09T01:43:21;14.20;99.90
62862;DHT22;48953;53.110;5.592;2022-09-09T01:45:48;14.10;99.90
62862;DHT22;48953;53.110;5.592;2022-09-09T01:48:15;14.00;99.90
62862;DHT22;48953;53.110;5.592;2022-09-09T01:50:40;13.90;99.90
62862;DHT22;48953;53.110;5.592;2022-09-09T01:53:06;14.00;99.90
62862;DHT22;48953;53.110;5.592;2022-09-09T01:55:43;13.80;99.90
62862;DHT22;48953;53.110;5.592;2022-09-09T01:58:45;14.00;99.90
62862;DHT22;48953;53.110;5.592;2022-09-09T02:03:55;13.70;99.90
62862;DHT22;48953;53.110;5.592;2022-09-09T02:06:31;14.10;99.90
62862;DHT22;48953;53.110;5.592;2022-09-09T02:09:01;14.00;99.90
62862;DHT22;48953;53.110;5.592;2022-09-09T02:11:28;14.10;99.90
62862;DHT22;48953;53.110;5.592;2022-09-09T02:13:59;13.80;99.90
62862;DHT22;48953;53.110;5.592;2022-09-09T02:16:48;13.70;99.90
62862;DHT22;48953;53.110;5.592;2022-09-09T02:19:19;13.60;99.90
62862;DHT22;48953;53.110;5.592;2022-09-09T02:21:52;13.70;99.90
62862;DHT22;48953;53.110;5.592;2022-09-09T02:24:19;13.90;99.90
62862;DHT22;48953;53.110;5.592;2022-09-09T02:26:47;13.60;99.90
62862;DHT22;48953;53.110;5.592;2022-09-09T02:29:19;13.50;99.90
62862;DHT22;48953;53.110;5.592;2022-09-09T02:31:48;13.70;99.90
62862;DHT22;48953;53.110;5.592;2022-09-09T02:34:18;13.50;99.90
62862;DHT22;48953;53.110;5.592;2022-09-09T02:36:46;13.50;99.90
62862;DHT22;48953;53.110;5.592;2022-09-09T02:39:12;13.50;99.90
62862;DHT22;48953;53.110;5.592;2022-09-09T02:41:40;13.50;99.90
62862;DHT22;48953;53.110;5.592;2022-09-09T02:44:14;13.70;99.90
62862;DHT22;48953;53.110;5.592;2022-09-09T02:50:15;13.60;99.90
62862;DHT22;48953;53.110;5.592;2022-09-09T02:55:38;13.60;99.90
62862;DHT22;48953;53.110;5.592;2022-09-09T02:58:07;13.60;99.90
62862;DHT22;48953;53.110;5.592;2022-09-09T03:00:33;13.70;99.90
62862;DHT22;48953;53.110;5.592;2022-09-09T03:03:04;13.70;99.90
62862;DHT22;48953;53.110;5.592;2022-09-09T03:05:30;13.80;99.90
62862;DHT22;48953;53.110;5.592;2022-09-09T03:07:55;14.00;99.90
62862;DHT22;48953;53.110;5.592;2022-09-09T03:10:21;14.00;99.90
62862;DHT22;48953;53.110;5.592;2022-09-09T03:12:47;13.90;99.90
62862;DHT22;48953;53.110;5.592;2022-09-09T03:15:13;14.00;99.90
62862;DHT22;48953;53.110;5.592;2022-09-09T03:17:39;14.20;99.90
62862;DHT22;48953;53.110;5.592;2022-09-09T03:20:06;14.20;99.90
62862;DHT22;48953;53.110;5.592;2022-09-09T03:22:33;14.40;99.90
62862;DHT22;48953;53.110;5.592;2022-09-09T03:24:59;14.50;99.90
62862;DHT22;48953;53.110;5.592;2022-09-09T03:27:24;14.50;99.90
62862;DHT22;48953;53.110;5.592;2022-09-09T03:29:50;14.40;99.90
62862;DHT22;48953;53.110;5.592;2022-09-09T03:32:17;14.30;99.90
62862;DHT22;48953;53.110;5.592;2022-09-09T03:34:43;14.40;99.90
62862;DHT22;48953;53.110;5.592;2022-09-09T03:37:09;14.20;99.90
62862;DHT22;48953;53.110;5.592;2022-09-09T03:39:34;14.10;99.90
62862;DHT22;48953;53.110;5.592;2022-09-09T03:42:00;14.00;99.90
62862;DHT22;48953;53.110;5.592;2022-09-09T03:44:29;14.10;99.90
62862;DHT22;48953;53.110;5.592;2022-09-09T03:46:55;14.30;99.90
62862;DHT22;48953;53.110;5.592;2022-09-09T03:49:20;14.10;99.90
62862;DHT22;48953;53.110;5.592;2022-09-09T03:51:47;14.20;99.90
62862;DHT22;48953;53.110;5.592;2022-09-09T03:54:13;14.10;99.90
62862;DHT22;48953;53.110;5.592;2022-09-09T03:56:38;14.00;99.90
62862;DHT22;48953;53.110;5.592;2022-09-09T03:59:06;14.00;99.90
62862;DHT22;48953;53.110;5.592;2022-09-09T04:01:34;14.00;99.90
62862;DHT22;48953;53.110;5.592;2022-09-09T04:04:00;14.30;99.90
62862;DHT22;48953;53.110;5.592;2022-09-09T04:06:27;14.20;99.90
62862;DHT22;48953;53.110;5.592;2022-09-09T04:08:53;14.00;99.90
62862;DHT22;48953;53.110;5.592;2022-09-09T04:11:19;14.10;99.90
62862;DHT22;48953;53.110;5.592;2022-09-09T04:13:45;14.00;99.90
62862;DHT22;48953;53.110;5.592;2022-09-09T04:16:11;14.00;99.90
62862;DHT22;48953;53.110;5.592;2022-09-09T04:18:38;14.00;99.90
62862;DHT22;48953;53.110;5.592;2022-09-09T04:21:05;14.20;99.90
62862;DHT22;48953;53.110;5.592;2022-09-09T04:23:32;14.10;99.90
62862;DHT22;48953;53.110;5.592;2022-09-09T04:26:00;13.80;99.90
62862;DHT22;48953;53.110;5.592;2022-09-09T04:28:29;14.10;99.90
62862;DHT22;48953;53.110;5.592;2022-09-09T04:30:54;14.10;99.90
62862;DHT22;48953;53.110;5.592;2022-09-09T04:33:23;13.90;99.90
62862;DHT22;48953;53.110;5.592;2022-09-09T04:35:52;13.90;99.90
62862;DHT22;48953;53.110;5.592;2022-09-09T04:38:19;14.20;99.90
62862;DHT22;48953;53.110;5.592;2022-09-09T04:40:48;13.80;99.90
62862;DHT22;48953;53.110;5.592;2022-09-09T04:43:17;14.10;99.90
62862;DHT22;48953;53.110;5.592;2022-09-09T04:45:46;13.80;99.90
62862;DHT22;48953;53.110;5.592;2022-09-09T04:48:12;13.80;99.90
62862;DHT22;48953;53.110;5.592;2022-09-09T04:50:37;14.20;99.90
62862;DHT22;48953;53.110;5.592;2022-09-09T04:53:03;14.20;99.90
62862;DHT22;48953;53.110;5.592;2022-09-09T04:55:30;14.10;99.90
62862;DHT22;48953;53.110;5.592;2022-09-09T04:57:56;13.80;99.90
62862;DHT22;48953;53.110;5.592;2022-09-09T05:00:23;14.10;99.90
62862;DHT22;48953;53.110;5.592;2022-09-09T05:02:48;13.90;99.90
62862;DHT22;48953;53.110;5.592;2022-09-09T05:05:14;14.10;99.90
62862;DHT22;48953;53.110;5.592;2022-09-09T05:07:40;14.20;99.90
62862;DHT22;48953;53.110;5.592;2022-09-09T05:10:05;14.00;99.90
62862;DHT22;48953;53.110;5.592;2022-09-09T05:12:31;14.20;99.90
62862;DHT22;48953;53.110;5.592;2022-09-09T05:14:57;14.20;99.90
62862;DHT22;48953;53.110;5.592;2022-09-09T05:17:23;14.10;99.90
62862;DHT22;48953;53.110;5.592;2022-09-09T05:19:49;14.20;99.90
62862;DHT22;48953;53.110;5.592;2022-09-09T05:22:21;14.00;99.90
62862;DHT22;48953;53.110;5.592;2022-09-09T05:24:49;14.20;99.90
62862;DHT22;48953;53.110;5.592;2022-09-09T05:27:17;14.30;99.90
62862;DHT22;48953;53.110;5.592;2022-09-09T05:29:43;14.10;99.90
62862;DHT22;48953;53.110;5.592;2022-09-09T05:32:10;14.50;99.90
62862;DHT22;48953;53.110;5.592;2022-09-09T05:34:35;14.40;99.90
62862;DHT22;48953;53.110;5.592;2022-09-09T05:37:03;14.50;99.90
62862;DHT22;48953;53.110;5.592;2022-09-09T05:39:29;14.70;99.90
62862;DHT22;48953;53.110;5.592;2022-09-09T05:41:55;14.60;99.90
62862;DHT22;48953;53.110;5.592;2022-09-09T05:44:21;14.70;99.90
62862;DHT22;48953;53.110;5.592;2022-09-09T05:46:48;15.00;99.90
62862;DHT22;48953;53.110;5.592;2022-09-09T05:49:14;15.40;99.90
62862;DHT22;48953;53.110;5.592;2022-09-09T05:51:41;14.90;99.90
62862;DHT22;48953;53.110;5.592;2022-09-09T05:54:08;14.90;99.90
62862;DHT22;48953;53.110;5.592;2022-09-09T05:56:34;15.50;99.90
62862;DHT22;48953;53.110;5.592;2022-09-09T05:59:00;15.40;99.90
62862;DHT22;48953;53.110;5.592;2022-09-09T06:01:28;15.60;99.90
62862;DHT22;48953;53.110;5.592;2022-09-09T06:03:55;15.20;99.90
62862;DHT22;48953;53.110;5.592;2022-09-09T06:06:23;15.20;99.90
62862;DHT22;48953;53.110;5.592;2022-09-09T06:08:52;15.10;99.90
62862;DHT22;48953;53.110;5.592;2022-09-09T06:11:26;15.20;99.90
62862;DHT22;48953;53.110;5.592;2022-09-09T06:13:52;15.10;99.90
62862;DHT22;48953;53.110;5.592;2022-09-09T06:16:21;15.50;99.90
62862;DHT22;48953;53.110;5.592;2022-09-09T06:18:49;15.70;99.90
62862;DHT22;48953;53.110;5.592;2022-09-09T06:21:18;15.50;99.90
62862;DHT22;48953;53.110;5.592;2022-09-09T06:23:45;15.50;99.90
62862;DHT22;48953;53.110;5.592;2022-09-09T06:26:16;15.90;99.90
62862;DHT22;48953;53.110;5.592;2022-09-09T06:28:44;15.70;99.90
62862;DHT22;48953;53.110;5.592;2022-09-09T06:31:12;15.70;99.90
62862;DHT22;48953;53.110;5.592;2022-09-09T06:33:40;15.60;99.90
62862;DHT22;48953;53.110;5.592;2022-09-09T06:36:12;15.60;99.90
62862;DHT22;48953;53.110;5.592;2022-09-09T06:38:38;16.00;99.90
62862;DHT22;48953;53.110;5.592;2022-09-09T06:41:04;16.30;99.90
62862;DHT22;48953;53.110;5.592;2022-09-09T06:43:31;16.40;99.90
62862;DHT22;48953;53.110;5.592;2022-09-09T06:45:59;17.10;99.90
62862;DHT22;48953;53.110;5.592;2022-09-09T06:48:26;17.50;99.90
62862;DHT22;48953;53.110;5.592;2022-09-09T06:53:41;17.00;99.90
62862;DHT22;48953;53.110;5.592;2022-09-09T06:58:45;21.70;99.90
62862;DHT22;48953;53.110;5.592;2022-09-09T07:01:13;23.00;99.90
62862;DHT22;48953;53.110;5.592;2022-09-09T07:03:42;21.50;99.90
62862;DHT22;48953;53.110;5.592;2022-09-09T07:06:17;20.50;99.90
62862;DHT22;48953;53.110;5.592;2022-09-09T07:08:43;24.10;99.90
62862;DHT22;48953;53.110;5.592;2022-09-09T07:11:10;24.00;99.90
62862;DHT22;48953;53.110;5.592;2022-09-09T07:13:36;25.00;99.90
62862;DHT22;48953;53.110;5.592;2022-09-09T07:16:13;27.20;99.90
62862;DHT22;48953;53.110;5.592;2022-09-09T07:18:40;28.10;99.90
62862;DHT22;48953;53.110;5.592;2022-09-09T07:21:06;30.40;99.90
62862;DHT22;48953;53.110;5.592;2022-09-09T07:23:32;31.70;99.90
62862;DHT22;48953;53.110;5.592;2022-09-09T07:26:00;32.00;99.90
62862;DHT22;48953;53.110;5.592;2022-09-09T07:28:26;32.80;99.90
62862;DHT22;48953;53.110;5.592;2022-09-09T07:30:57;34.30;99.90
62862;DHT22;48953;53.110;5.592;2022-09-09T07:33:24;34.40;1.00
62862;DHT22;48953;53.110;5.592;2022-09-09T07:35:50;34.90;99.90
62862;DHT22;48953;53.110;5.592;2022-09-09T07:38:16;35.30;42.20
62862;DHT22;48953;53.110;5.592;2022-09-09T07:40:42;35.70;1.00
62862;DHT22;48953;53.110;5.592;2022-09-09T07:43:07;36.10;1.00
62862;DHT22;48953;53.110;5.592;2022-09-09T07:45:34;38.70;1.00
62862;DHT22;48953;53.110;5.592;2022-09-09T07:48:01;37.90;1.00
62862;DHT22;48953;53.110;5.592;2022-09-09T07:50:27;35.00;1.00
62862;DHT22;48953;53.110;5.592;2022-09-09T07:52:53;31.90;1.00
62862;DHT22;48953;53.110;5.592;2022-09-09T07:55:20;28.20;99.90
62862;DHT22;48953;53.110;5.592;2022-09-09T07:57:46;28.20;99.90
62862;DHT22;48953;53.110;5.592;2022-09-09T08:00:12;27.10;99.90
62862;DHT22;48953;53.110;5.592;2022-09-09T08:02:37;26.40;99.90
62862;DHT22;48953;53.110;5.592;2022-09-09T08:05:03;26.50;99.90
62862;DHT22;48953;53.110;5.592;2022-09-09T08:07:30;26.30;99.90
62862;DHT22;48953;53.110;5.592;2022-09-09T08:09:55;25.50;99.90
62862;DHT22;48953;53.110;5.592;2022-09-09T08:12:21;25.30;99.90
62862;DHT22;48953;53.110;5.592;2022-09-09T08:14:47;25.30;99.90
62862;DHT22;48953;53.110;5.592;2022-09-09T08:17:14;25.60;99.90
62862;DHT22;48953;53.110;5.592;2022-09-09T08:19:39;27.80;99.90
62862;DHT22;48953;53.110;5.592;2022-09-09T08:22:05;27.30;99.90
62862;DHT22;48953;53.110;5.592;2022-09-09T08:24:30;25.30;99.90
62862;DHT22;48953;53.110;5.592;2022-09-09T08:26:56;24.20;99.90
62862;DHT22;48953;53.110;5.592;2022-09-09T08:29:22;26.80;99.90
62862;DHT22;48953;53.110;5.592;2022-09-09T08:31:51;28.50;99.90
62862;DHT22;48953;53.110;5.592;2022-09-09T08:34:18;25.40;99.90
62862;DHT22;48953;53.110;5.592;2022-09-09T08:36:46;24.00;99.90
62862;DHT22;48953;53.110;5.592;2022-09-09T08:39:19;22.70;1.00
62862;DHT22;48953;53.110;5.592;2022-09-09T08:42:10;22.50;1.00
62862;DHT22;48953;53.110;5.592;2022-09-09T08:50:34;22.20;1.00
62862;DHT22;48953;53.110;5.592;2022-09-09T08:53:19;21.40;59.50
62862;DHT22;48953;53.110;5.592;2022-09-09T08:58:51;20.70;99.90
62862;DHT22;48953;53.110;5.592;2022-09-09T09:09:09;23.00;1.00
62862;DHT22;48953;53.110;5.592;2022-09-09T09:11:45;22.30;27.50
62862;DHT22;48953;53.110;5.592;2022-09-09T09:14:25;26.10;99.90
62862;DHT22;48953;53.110;5.592;2022-09-09T09:17:00;28.50;99.90
62862;DHT22;48953;53.110;5.592;2022-09-09T09:19:28;28.20;99.90
62862;DHT22;48953;53.110;5.592;2022-09-09T09:24:51;27.00;99.90
62862;DHT22;48953;53.110;5.592;2022-09-09T09:30:14;24.40;99.90
62862;DHT22;48953;53.110;5.592;2022-09-09T09:32:45;23.70;1.00
62862;DHT22;48953;53.110;5.592;2022-09-09T09:35:13;23.20;1.00
62862;DHT22;48953;53.110;5.592;2022-09-09T09:37:40;22.40;1.00
62862;DHT22;48953;53.110;5.592;2022-09-09T09:40:15;23.30;1.00
62862;DHT22;48953;53.110;5.592;2022-09-09T09:42:56;23.90;99.90
62862;DHT22;48953;53.110;5.592;2022-09-09T09:45:34;23.30;99.90
62862;DHT22;48953;53.110;5.592;2022-09-09T09:48:02;22.70;1.00
62862;DHT22;48953;53.110;5.592;2022-09-09T09:50:28;24.30;99.90
62862;DHT22;48953;53.110;5.592;2022-09-09T09:52:56;23.00;1.00
62862;DHT22;48953;53.110;5.592;2022-09-09T09:55:23;24.00;99.90
62862;DHT22;48953;53.110;5.592;2022-09-09T09:57:49;24.00;99.90
62862;DHT22;48953;53.110;5.592;2022-09-09T10:00:20;25.40;99.90
62862;DHT22;48953;53.110;5.592;2022-09-09T10:02:47;24.90;99.90
62862;DHT22;48953;53.110;5.592;2022-09-09T10:05:23;24.00;99.90
62862;DHT22;48953;53.110;5.592;2022-09-09T10:08:02;24.20;99.90
62862;DHT22;48953;53.110;5.592;2022-09-09T10:10:42;25.00;99.90
62862;DHT22;48953;53.110;5.592;2022-09-09T10:15:59;23.60;99.90
62862;DHT22;48953;53.110;5.592;2022-09-09T10:18:47;24.20;99.90
62862;DHT22;48953;53.110;5.592;2022-09-09T10:21:42;26.70;99.90
62862;DHT22;48953;53.110;5.592;2022-09-09T10:27:17;26.50;99.90
62862;DHT22;48953;53.110;5.592;2022-09-09T10:35:24;23.80;99.90
62862;DHT22;48953;53.110;5.592;2022-09-09T10:48:34;22.40;99.90
62862;DHT22;48953;53.110;5.592;2022-09-09T10:54:29;21.90;1.00
62862;DHT22;48953;53.110;5.592;2022-09-09T10:57:17;21.30;1.00
62862;DHT22;48953;53.110;5.592;2022-09-09T10:59:52;20.50;1.00
62862;DHT22;48953;53.110;5.592;2022-09-09T11:02:27;20.10;99.90
62862;DHT22;48953;53.110;5.592;2022-09-09T11:07:43;19.40;99.90
62862;DHT22;48953;53.110;5.592;2022-09-09T11:13:35;20.80;1.00
62862;DHT22;48953;53.110;5.592;2022-09-09T11:16:15;21.70;99.90
62862;DHT22;48953;53.110;5.592;2022-09-09T11:18:42;22.10;99.90
62862;DHT22;48953;53.110;5.592;2022-09-09T11:21:21;21.60;99.90
62862;DHT22;48953;53.110;5.592;2022-09-09T11:24:03;21.70;99.90
62862;DHT22;48953;53.110;5.592;2022-09-09T11:26:38;22.60;99.90
62862;DHT22;48953;53.110;5.592;2022-09-09T11:29:33;23.40;99.90
62862;DHT22;48953;53.110;5.592;2022-09-09T11:40:45;23.20;3.60
62862;DHT22;48953;53.110;5.592;2022-09-09T11:43:12;22.60;9.00
62862;DHT22;48953;53.110;5.592;2022-09-09T11:45:41;22.50;6.80
62862;DHT22;48953;53.110;5.592;2022-09-09T11:48:25;22.30;1.00
62862;DHT22;48953;53.110;5.592;2022-09-09T11:53:35;22.40;1.00
62862;DHT22;48953;53.110;5.592;2022-09-09T11:56:02;22.20;1.00
62862;DHT22;48953;53.110;5.592;2022-09-09T11:58:36;21.70;65.90
62862;DHT22;48953;53.110;5.592;2022-09-09T12:01:13;21.50;90.70
62862;DHT22;48953;53.110;5.592;2022-09-09T12:03:51;21.20;99.90
62862;DHT22;48953;53.110;5.592;2022-09-09T12:09:19;20.70;99.90
62862;DHT22;48953;53.110;5.592;2022-09-09T12:11:46;20.30;99.90
62862;DHT22;48953;53.110;5.592;2022-09-09T12:14:21;21.20;99.90
62862;DHT22;48953;53.110;5.592;2022-09-09T12:16:48;21.40;99.90
62862;DHT22;48953;53.110;5.592;2022-09-09T12:19:16;21.60;82.10
62862;DHT22;48953;53.110;5.592;2022-09-09T12:27:00;21.50;99.90
62862;DHT22;48953;53.110;5.592;2022-09-09T12:29:39;21.50;76.80
62862;DHT22;48953;53.110;5.592;2022-09-09T12:32:15;21.30;99.90
62862;DHT22;48953;53.110;5.592;2022-09-09T12:34:46;21.10;99.90
62862;DHT22;48953;53.110;5.592;2022-09-09T12:37:48;21.20;99.90
62862;DHT22;48953;53.110;5.592;2022-09-09T12:40:29;21.40;99.90
62862;DHT22;48953;53.110;5.592;2022-09-09T12:42:55;21.40;99.90
62862;DHT22;48953;53.110;5.592;2022-09-09T12:45:23;21.50;95.90
62862;DHT22;48953;53.110;5.592;2022-09-09T12:48:01;21.50;1.00
62862;DHT22;48953;53.110;5.592;2022-09-09T12:50:37;21.40;83.50
62862;DHT22;48953;53.110;5.592;2022-09-09T12:53:22;21.90;57.10
62862;DHT22;48953;53.110;5.592;2022-09-09T12:58:26;21.80;22.10
62862;DHT22;48953;53.110;5.592;2022-09-09T13:00:56;21.70;11.70
62862;DHT22;48953;53.110;5.592;2022-09-09T13:03:26;22.60;1.00
62862;DHT22;48953;53.110;5.592;2022-09-09T13:05:53;22.40;1.00
62862;DHT22;48953;53.110;5.592;2022-09-09T13:08:23;22.60;1.00
62862;DHT22;48953;53.110;5.592;2022-09-09T13:11:00;22.10;1.00
62862;DHT22;48953;53.110;5.592;2022-09-09T13:13:30;21.80;16.80
62862;DHT22;48953;53.110;5.592;2022-09-09T13:16:01;21.30;40.00
62862;DHT22;48953;53.110;5.592;2022-09-09T13:18:31;20.80;99.90
62862;DHT22;48953;53.110;5.592;2022-09-09T13:20:57;20.50;99.90
62862;DHT22;48953;53.110;5.592;2022-09-09T13:23:34;20.20;99.90
62862;DHT22;48953;53.110;5.592;2022-09-09T13:26:22;21.10;99.90
62862;DHT22;48953;53.110;5.592;2022-09-09T13:28:48;21.70;1.00
62862;DHT22;48953;53.110;5.592;2022-09-09T13:31:23;21.60;99.90
62862;DHT22;48953;53.110;5.592;2022-09-09T13:33:49;22.10;99.90
62862;DHT22;48953;53.110;5.592;2022-09-09T13:36:15;22.60;99.90
62862;DHT22;48953;53.110;5.592;2022-09-09T13:38:57;23.00;99.90
62862;DHT22;48953;53.110;5.592;2022-09-09T13:41:29;22.20;99.90
62862;DHT22;48953;53.110;5.592;2022-09-09T13:43:56;22.10;99.90
62862;DHT22;48953;53.110;5.592;2022-09-09T13:46:37;22.10;99.90
62862;DHT22;48953;53.110;5.592;2022-09-09T13:54:06;21.90;99.90
62862;DHT22;48953;53.110;5.592;2022-09-09T13:56:32;22.20;99.90
62862;DHT22;48953;53.110;5.592;2022-09-09T13:58:58;22.30;99.90
62862;DHT22;48953;53.110;5.592;2022-09-09T14:01:24;21.80;99.90
62862;DHT22;48953;53.110;5.592;2022-09-09T14:03:49;21.70;99.90
62862;DHT22;48953;53.110;5.592;2022-09-09T14:06:16;21.40;99.90
62862;DHT22;48953;53.110;5.592;2022-09-09T14:08:44;21.80;99.90
62862;DHT22;48953;53.110;5.592;2022-09-09T14:11:12;21.40;99.90
62862;DHT22;48953;53.110;5.592;2022-09-09T14:13:38;21.10;99.90
62862;DHT22;48953;53.110;5.592;2022-09-09T14:16:04;21.30;99.90
62862;DHT22;48953;53.110;5.592;2022-09-09T14:18:29;21.10;99.90
62862;DHT22;48953;53.110;5.592;2022-09-09T14:20:55;21.50;99.90
62862;DHT22;48953;53.110;5.592;2022-09-09T14:23:22;21.90;99.90
62862;DHT22;48953;53.110;5.592;2022-09-09T14:25:48;22.10;99.90
62862;DHT22;48953;53.110;5.592;2022-09-09T14:28:14;22.00;71.10
62862;DHT22;48953;53.110;5.592;2022-09-09T14:30:41;21.40;99.90
62862;DHT22;48953;53.110;5.592;2022-09-09T14:33:11;20.70;99.90
62862;DHT22;48953;53.110;5.592;2022-09-09T14:35:38;20.20;99.90
62862;DHT22;48953;53.110;5.592;2022-09-09T14:38:06;20.20;99.90
62862;DHT22;48953;53.110;5.592;2022-09-09T14:40:34;19.70;63.60
62862;DHT22;48953;53.110;5.592;2022-09-09T14:43:00;19.40;99.90
62862;DHT22;48953;53.110;5.592;2022-09-09T14:45:26;19.30;99.90
62862;DHT22;48953;53.110;5.592;2022-09-09T14:47:52;19.60;99.90
62862;DHT22;48953;53.110;5.592;2022-09-09T14:50:19;19.90;99.90
62862;DHT22;48953;53.110;5.592;2022-09-09T14:52:45;20.10;85.70
62862;DHT22;48953;53.110;5.592;2022-09-09T14:55:11;20.30;99.90
62862;DHT22;48953;53.110;5.592;2022-09-09T14:57:37;20.50;1.00
62862;DHT22;48953;53.110;5.592;2022-09-09T15:00:04;20.50;99.90
62862;DHT22;48953;53.110;5.592;2022-09-09T15:02:31;20.30;99.90
62862;DHT22;48953;53.110;5.592;2022-09-09T15:04:56;20.00;4.30
62862;DHT22;48953;53.110;5.592;2022-09-09T15:07:23;19.80;99.90
62862;DHT22;48953;53.110;5.592;2022-09-09T15:09:49;19.90;71.30
62862;DHT22;48953;53.110;5.592;2022-09-09T15:12:15;20.00;73.30
62862;DHT22;48953;53.110;5.592;2022-09-09T15:14:41;20.20;7.00
62862;DHT22;48953;53.110;5.592;2022-09-09T15:17:06;20.30;1.00
62862;DHT22;48953;53.110;5.592;2022-09-09T15:19:32;20.20;1.00
62862;DHT22;48953;53.110;5.592;2022-09-09T15:21:57;19.80;99.90
62862;DHT22;48953;53.110;5.592;2022-09-09T15:24:25;20.00;99.90
62862;DHT22;48953;53.110;5.592;2022-09-09T15:26:52;20.10;1.00
62862;DHT22;48953;53.110;5.592;2022-09-09T15:29:19;20.10;1.00
62862;DHT22;48953;53.110;5.592;2022-09-09T15:31:44;20.50;1.00
62862;DHT22;48953;53.110;5.592;2022-09-09T15:34:10;20.60;99.90
62862;DHT22;48953;53.110;5.592;2022-09-09T15:36:38;20.40;99.90
62862;DHT22;48953;53.110;5.592;2022-09-09T15:39:07;20.10;1.00
62862;DHT22;48953;53.110;5.592;2022-09-09T15:41:35;20.30;1.00
62862;DHT22;48953;53.110;5.592;2022-09-09T15:44:01;20.30;1.00
62862;DHT22;48953;53.110;5.592;2022-09-09T15:47:01;19.90;1.00
62862;DHT22;48953;53.110;5.592;2022-09-09T15:49:22;19.80;99.90
62862;DHT22;48953;53.110;5.592;2022-09-09T15:51:55;19.80;99.90
62862;DHT22;48953;53.110;5.592;2022-09-09T15:54:25;19.00;99.90
62862;DHT22;48953;53.110;5.592;2022-09-09T15:56:58;18.20;99.90
62862;DHT22;48953;53.110;5.592;2022-09-09T15:59:25;18.60;99.90
62862;DHT22;48953;53.110;5.592;2022-09-09T16:01:51;18.00;99.90
62862;DHT22;48953;53.110;5.592;2022-09-09T16:04:18;17.70;99.90
62862;DHT22;48953;53.110;5.592;2022-09-09T16:06:56;17.30;99.90
62862;DHT22;48953;53.110;5.592;2022-09-09T16:09:24;17.50;99.90
62862;DHT22;48953;53.110;5.592;2022-09-09T16:11:50;17.50;99.90
62862;DHT22;48953;53.110;5.592;2022-09-09T16:14:17;17.60;99.90
62862;DHT22;48953;53.110;5.592;2022-09-09T16:16:43;17.80;99.90
62862;DHT22;48953;53.110;5.592;2022-09-09T16:19:10;17.80;99.90
62862;DHT22;48953;53.110;5.592;2022-09-09T16:21:40;17.70;99.90
62862;DHT22;48953;53.110;5.592;2022-09-09T16:24:09;17.90;99.90
62862;DHT22;48953;53.110;5.592;2022-09-09T16:26:36;17.70;99.90
62862;DHT22;48953;53.110;5.592;2022-09-09T16:29:02;17.90;99.90
62862;DHT22;48953;53.110;5.592;2022-09-09T16:31:29;17.70;99.90
62862;DHT22;48953;53.110;5.592;2022-09-09T16:33:56;18.10;99.90
62862;DHT22;48953;53.110;5.592;2022-09-09T16:36:24;18.10;99.90
62862;DHT22;48953;53.110;5.592;2022-09-09T16:38:54;17.80;99.90
62862;DHT22;48953;53.110;5.592;2022-09-09T16:41:23;18.00;99.90
62862;DHT22;48953;53.110;5.592;2022-09-09T16:43:57;17.80;99.90
62862;DHT22;48953;53.110;5.592;2022-09-09T16:46:24;17.80;99.90
62862;DHT22;48953;53.110;5.592;2022-09-09T16:48:51;17.80;99.90
62862;DHT22;48953;53.110;5.592;2022-09-09T16:53:44;17.70;99.90
62862;DHT22;48953;53.110;5.592;2022-09-09T16:56:15;17.50;99.90
62862;DHT22;48953;53.110;5.592;2022-09-09T16:58:42;17.70;99.90
62862;DHT22;48953;53.110;5.592;2022-09-09T17:01:11;17.70;99.90
62862;DHT22;48953;53.110;5.592;2022-09-09T17:03:39;17.70;99.90
62862;DHT22;48953;53.110;5.592;2022-09-09T17:06:09;17.50;99.90
62862;DHT22;48953;53.110;5.592;2022-09-09T17:08:35;17.60;99.90
62862;DHT22;48953;53.110;5.592;2022-09-09T17:11:01;17.30;99.90
62862;DHT22;48953;53.110;5.592;2022-09-09T17:13:26;17.10;99.90
62862;DHT22;48953;53.110;5.592;2022-09-09T17:15:52;17.40;99.90
62862;DHT22;48953;53.110;5.592;2022-09-09T17:18:18;17.40;99.90
62862;DHT22;48953;53.110;5.592;2022-09-09T17:20:43;17.20;99.90
62862;DHT22;48953;53.110;5.592;2022-09-09T17:23:10;17.10;99.90
62862;DHT22;48953;53.110;5.592;2022-09-09T17:25:37;17.10;99.90
62862;DHT22;48953;53.110;5.592;2022-09-09T17:28:03;17.10;99.90
62862;DHT22;48953;53.110;5.592;2022-09-09T17:30:38;17.20;99.90
62862;DHT22;48953;53.110;5.592;2022-09-09T17:33:04;17.10;99.90
62862;DHT22;48953;53.110;5.592;2022-09-09T17:35:32;16.90;99.90
62862;DHT22;48953;53.110;5.592;2022-09-09T17:37:58;17.00;99.90
62862;DHT22;48953;53.110;5.592;2022-09-09T17:40:24;16.90;99.90
62862;DHT22;48953;53.110;5.592;2022-09-09T17:42:49;16.80;99.90
62862;DHT22;48953;53.110;5.592;2022-09-09T17:45:15;17.00;99.90
62862;DHT22;48953;53.110;5.592;2022-09-09T17:47:41;16.90;99.90
62862;DHT22;48953;53.110;5.592;2022-09-09T17:50:09;17.10;99.90
62862;DHT22;48953;53.110;5.592;2022-09-09T17:52:36;16.60;99.90
62862;DHT22;48953;53.110;5.592;2022-09-09T17:55:04;16.80;99.90
62862;DHT22;48953;53.110;5.592;2022-09-09T17:57:29;17.00;99.90
62862;DHT22;48953;53.110;5.592;2022-09-09T17:59:55;16.90;99.90
62862;DHT22;48953;53.110;5.592;2022-09-09T18:02:20;16.70;99.90